ADDS METAR Data INFO
IDs: Format: Raw Decoded Include TAF

Data at: 0750 UTC 17 Oct 2017

PAFM 170656Z AUTO 00000KT 10SM BKN055 M03/M03 A2960 RMK AO2 SLP039 T10281033 FZRANO
PAFM 170556Z AUTO 00000KT 10SM FEW048 OVC060 M03/M03 A2961 RMK AO2 SLP041 60001 T10281033 10006 21028 56005 FZRANO
PAFM 170456Z AUTO 00000KT 10SM OVC060 M02/M03 A2961 RMK AO2 SNE0357B19E39 SLP042 P0000 T10221028 FZRANO
PAFM 170356Z AUTO 30003KT 9SM -SN BKN041 OVC060 M02/M02 A2962 RMK AO2 UPE0257SNB0257 SLP044 P0000 T10171022 FZRANO
PAFM 170342Z AUTO 00000KT 7SM -SN SCT011 BKN041 OVC055 M02/M02 A2962 RMK AO2 UPE0257SNB0257 P0000 FZRANO
PAFM 170335Z AUTO 29003KT 8SM -SN SCT011 BKN019 OVC060 M02/M02 A2962 RMK AO2 UPE0257SNB0257 P0000 FZRANO
PAFM 170328Z AUTO 00000KT 9SM -SN BKN011 BKN016 OVC043 M01/M02 A2963 RMK AO2 UPE0257SNB0257 P0000 FZRANO
PAFM 170321Z AUTO 00000KT 7SM -SN SCT013 BKN022 OVC028 M01/M03 A2963 RMK AO2 UPE0257SNB0257 P0000 FZRANO
PAFM 170311Z AUTO 00000KT 2 1/2SM -SN BR BKN022 OVC030 M01/M03 A2962 RMK AO2 VIS 1 3/4V5 UPE0257SNB0257 P0000 FZRANO
PAFM 170256Z AUTO 00000KT 4SM UP BR OVC030 M01/M02 A2963 RMK AO2 UPB38 SLP046 P0000 60001 T10061022 56006 FZRANO
PAFM 170156Z AUTO 00000KT 10SM OVC030 00/M03 A2963 RMK AO2 SLP048 T00001028 FZRANO
PAFM 170127Z AUTO 00000KT 10SM SCT010 OVC032 00/M03 A2963 RMK AO2 FZRANO
PAFM 170056Z AUTO 00000KT 10SM OVC010 01/M02 A2964 RMK AO2 SLP049 P0001 T00061022 FZRANO
PAFM 170037Z AUTO 00000KT 9SM BKN010 BKN036 OVC065 00/M02 A2964 RMK AO2 P0001 FZRANO
PAFM 162356Z AUTO 00000KT 10SM FEW036 OVC065 M01/M03 A2964 RMK AO2 SLP052 60000 T10061028 11006 21022 57002 FZRANO
PAFM 162256Z AUTO 00000KT 10SM OVC060 M01/M03 A2965 RMK AO2 UPE02 SLP053 P0000 T10061033 FZRANO
PAFM 162156Z AUTO 04003KT 10SM UP OVC070 M01/M03 A2964 RMK AO2 UPB43 SLP053 P0000 T10111028 FZRANO
PAFM 162056Z AUTO 00000KT 10SM BKN070 M01/M03 A2965 RMK AO2 UPB08E43SNE08B24E33 SLP054 P0000 60000 T10111033 53003 FZRANO
PAFM 161956Z AUTO 00000KT 10SM -SN FEW023 OVC045 M02/M03 A2964 RMK AO2 UPB31E54SNE31B54 SLP053 P0000 T10221033 FZRANO
PAFM 161934Z AUTO 00000KT 5SM UP BR BKN025 M02/M03 A2964 RMK AO2 UPB31SNE31 P0000 FZRANO
PAFM 161924Z AUTO 00000KT 2 1/2SM -SN BR BKN021 OVC028 M02/M03 A2964 RMK AO2 VIS 1V5 P0000 FZRANO
PAFM 161908Z AUTO 01003KT 3SM -SN BR SCT019 OVC026 M02/M03 A2964 RMK AO2 P0000 FZRANO
PAFM 161856Z AUTO 00000KT 2 1/2SM -SN BR BKN023 BKN027 OVC036 M02/M03 A2964 RMK AO2 VIS 1V5 SLP053 P0000 T10221033 FZRANO
PAFM 161849Z AUTO 00000KT 2SM -SN BR BKN025 OVC036 M02/M03 A2964 RMK AO2 VIS 1V5 P0000 FZRANO
PAFM 161816Z AUTO 03003KT 5SM -SN BR OVC037 M02/M03 A2964 RMK AO2 P0000 FZRANO
PAFM 161756Z AUTO 01003KT 2 1/2SM -SN BR OVC039 M02/M03 A2964 RMK AO2 VIS 1V5 SLP052 P0000 60000 T10221033 11022 21022 57001 FZRANO
PAFM 161722Z AUTO 00000KT 7SM -SN SCT019 SCT031 OVC041 M02/M03 A2964 RMK AO2 P0000 FZRANO
PAFM 161656Z AUTO 00000KT 9SM -SN BKN019 OVC030 M02/M03 A2964 RMK AO2 UPB44E46SNE44B46 SLP052 P0000 T10221033 FZRANO
PAFM 161556Z AUTO 00000KT 10SM -SN OVC032 M02/M03 A2964 RMK AO2 SNB53 SLP052 P0000 T10221033 FZRANO
PAFM 161456Z AUTO 02003KT 10SM OVC034 M02/M03 A2964 RMK AO2 SNE43 SLP053 P0000 60000 T10221033 58002 FZRANO
PAFM 161256Z AUTO 02005KT 9SM -SN BKN050 OVC065 M02/M03 A2965 RMK AO2 SLP055 P0000 T10221033 FZRANO
PAFM 161217Z AUTO 04004KT 9SM -SN SCT024 SCT046 OVC065 M02/M03 A2965 RMK AO2 P0000 FZRANO
PAFM 161156Z AUTO 03005KT 9SM -SN BKN024 OVC043 M02/M03 A2965 RMK AO2 SNB33 SLP054 P0000 60000 T10221033 11017 21022 58001 FZRANO
PAFM 161131Z AUTO 05003KT 10SM BKN024 OVC050 M02/M03 A2965 RMK AO2 FZRANO
PAFM 161116Z AUTO 00000KT 10SM SCT024 OVC050 M02/M03 A2965 RMK AO2 FZRANO
PAFM 161056Z AUTO 07003KT 10SM OVC024 M02/M03 A2965 RMK AO2 SLP056 T10221033 FZRANO
PAFM 160926Z AUTO 03005KT 10SM BKN026 OVC065 M02/M03 A2965 RMK AO2 FZRANO
PAFM 160856Z AUTO 02004KT 10SM OVC065 M02/M03 A2965 RMK AO2 SLP056 60000 T10221033 51003 FZRANO
PAFM 160756Z AUTO 05004KT 10SM OVC043 M02/M03 A2965 RMK AO2 SNE23 SLP054 P0000 T10221033 410061044 FZRANO
PAFM 160656Z AUTO 02004KT 9SM -SN FEW029 SCT090 M02/M03 A2965 RMK AO2 UPB04E21SNB52 SLP055 P0000 T10221033 FZRANO
PAFM 160614Z AUTO 03003KT 10SM UP SCT027 BKN065 M02/M03 A2965 RMK AO2 UPB04 P0000 FZRANO
PAFM 160556Z AUTO 00000KT 10SM BKN027 OVC070 M02/M03 A2964 RMK AO2 UPB25E37 SLP053 P0000 60000 T10221028 11006 21022 53002 FZRANO
PAFM 160456Z AUTO 00000KT 10SM BKN065 OVC110 M02/M03 A2964 RMK AO2 UPB10E29 SLP050 P0000 T10221028 FZRANO
PAFM 160356Z AUTO 00000KT 10SM FEW026 OVC120 M02/M03 A2964 RMK AO2 SLP052 T10171028 FZRANO
PAFM 160348Z AUTO 00000KT 10SM SCT026 OVC120 M02/M03 A2964 RMK AO2 FZRANO
PAFM 160256Z AUTO 05004KT 10SM OVC026 M01/M02 A2964 RMK AO2 SLP051 60000 T10111017 56005 FZRANO
PAFM 160156Z AUTO 03005KT 10SM OVC026 M01/M02 A2964 RMK AO2 UPB08E12SNE0058B12E39 SLP052 P0000 T10111017 FZRANO
PAFM 160056Z AUTO 04007KT 9SM -SN OVC026 M01/M02 A2965 RMK AO2 SLP054 P0000 T10111017 FZRANO
PAFM 152356Z AUTO 02007KT 9SM -SN OVC024 M02/M02 A2965 RMK AO2 SLP056 P0000 60000 T10171022 11017 21039 58005 FZRANO
PAFM 152256Z AUTO 04007KT 9SM -SN FEW013 OVC026 M02/M03 A2966 RMK AO2 SLP060 P0000 T10221033 FZRANO
PAFM 152156Z AUTO 03007KT 7SM -SN OVC026 M02/M03 A2967 RMK AO2 SNE08B36 SLP062 P0000 T10221033 FZRANO
PAFM 151956Z AUTO 05004KT 10SM OVC020 M03/M04 A2967 RMK AO2 SLP063 T10331039 FZRANO